Time;durP1;ratioP1;P1;durP2;ratioP2;P2;SDS_P1;SDS_P2;PMS_P1;PMS_P2;Temp;Humidity;BMP_temperature;BMP_pressure;BME280_temperature;BME280_humidity;BME280_pressure;Samples;Min_cycle;Max_cycle;Signal;HPM_P1;HPM_P2
2021/10/11 00:00:14;;;;;;;8.25;5.65;;;;;;;3.92;91.35;97049.59;6370806;46;20655;-76
2021/10/11 00:05:16;;;;;;;7.82;5.50;;;;;;;3.68;91.55;97062.25;6371108;46;20620;-76
2021/10/11 00:10:19;;;;;;;5.93;4.65;;;;;;;3.53;92.64;97060.75;6370724;46;20096;-76
2021/10/11 00:15:26;;;;;;;8.05;5.32;;;;;;;3.56;92.92;97058.00;6371056;46;20088;-76
2021/10/11 00:20:28;;;;;;;9.07;6.03;;;;;;;3.60;92.45;97052.50;6372113;46;20102;-75
2021/10/11 00:25:31;;;;;;;9.15;6.53;;;;;;;3.58;92.33;97054.88;6357467;46;20092;-76
2021/10/11 00:30:34;;;;;;;6.32;4.93;;;;;;;3.66;91.84;97048.19;6370970;46;20119;-76
2021/10/11 00:35:37;;;;;;;8.65;5.43;;;;;;;3.56;91.22;97049.81;6370542;46;20088;-75
2021/10/11 00:40:39;;;;;;;8.77;5.60;;;;;;;3.54;90.93;97052.16;6370753;46;20849;-76
2021/10/11 00:45:42;;;;;;;8.57;5.55;;;;;;;3.31;91.70;97048.38;6370527;46;20092;-75
2021/10/11 00:50:44;;;;;;;7.38;5.57;;;;;;;3.37;91.48;97041.34;6370701;46;20097;-76
2021/10/11 00:55:47;;;;;;;9.88;5.75;;;;;;;3.24;92.36;97032.78;6370525;46;20100;-76
2021/10/11 01:00:49;;;;;;;7.43;5.85;;;;;;;3.26;92.10;97024.19;6357778;46;20093;-74
2021/10/11 01:05:52;;;;;;;9.65;5.45;;;;;;;3.32;91.39;97022.63;6370727;46;20260;-75
2021/10/11 01:10:56;;;;;;;8.95;5.22;;;;;;;3.31;91.26;97031.97;6369638;46;20096;-75
2021/10/11 01:15:58;;;;;;;7.43;5.32;;;;;;;3.11;91.78;97028.94;6370400;46;20093;-75
2021/10/11 01:21:00;;;;;;;7.25;5.88;;;;;;;3.15;91.85;97035.16;6372168;46;20544;-76
2021/10/11 01:26:03;;;;;;;9.00;5.93;;;;;;;3.07;91.40;97038.31;6372307;46;20092;-76
2021/10/11 01:31:06;;;;;;;9.63;5.65;;;;;;;3.10;91.65;97037.53;6372471;46;20097;-77
2021/10/11 01:36:08;;;;;;;7.55;5.63;;;;;;;3.01;91.31;97034.47;6371852;46;20105;-76
2021/10/11 01:41:10;;;;;;;9.60;6.28;;;;;;;2.94;91.78;97031.75;6359875;46;20092;-76
2021/10/11 01:46:13;;;;;;;10.80;6.22;;;;;;;2.95;91.55;97036.00;6371716;46;20105;-76
2021/10/11 01:51:15;;;;;;;8.52;5.80;;;;;;;2.93;91.64;97020.03;6372036;46;20768;-76
2021/10/11 01:56:18;;;;;;;9.45;5.45;;;;;;;2.92;90.90;97016.53;6372154;46;20087;-76
2021/10/11 02:01:20;;;;;;;7.57;5.78;;;;;;;2.72;91.62;97020.88;6371899;46;20088;-76
2021/10/11 02:06:22;;;;;;;9.02;5.90;;;;;;;2.85;90.73;97022.00;6371633;46;20101;-76
2021/10/11 02:11:25;;;;;;;10.13;6.65;;;;;;;2.71;91.32;97022.03;6372070;46;20097;-76
2021/10/11 02:16:27;;;;;;;11.30;6.30;;;;;;;2.73;91.94;97025.19;6371625;46;20097;-76
2021/10/11 02:21:30;;;;;;;7.53;5.78;;;;;;;2.65;91.94;97015.44;6371617;46;20620;-77
2021/10/11 02:26:32;;;;;;;7.32;5.63;;;;;;;2.61;92.16;97027.53;6359637;46;20122;-76
2021/10/11 02:31:34;;;;;;;8.32;5.35;;;;;;;2.68;92.94;97033.75;6358854;46;20119;-75
2021/10/11 02:36:37;;;;;;;8.20;5.60;;;;;;;2.85;91.52;97027.47;6358603;46;20650;-75
2021/10/11 02:41:39;;;;;;;11.95;6.03;;;;;;;2.61;91.35;97032.97;6372195;46;20110;-76
2021/10/11 02:46:42;;;;;;;9.70;6.40;;;;;;;2.70;91.74;97028.69;6371493;46;20096;-76
2021/10/11 02:51:44;;;;;;;9.55;5.03;;;;;;;2.65;91.39;97028.28;6371828;46;20105;-76
2021/10/11 02:56:46;;;;;;;6.35;5.10;;;;;;;2.59;91.47;97025.19;6371728;46;20110;-76
2021/10/11 03:01:49;;;;;;;7.22;5.18;;;;;;;2.70;90.49;97031.41;6371427;46;20088;-76
2021/10/11 03:06:51;;;;;;;8.40;5.05;;;;;;;2.38;91.03;97022.50;6371276;46;20135;-75
2021/10/11 03:11:53;;;;;;;7.20;5.38;;;;;;;2.29;91.77;97040.41;6371718;46;20106;-76
2021/10/11 03:16:56;;;;;;;10.00;5.47;;;;;;;2.31;92.49;97041.59;6371193;46;20100;-77
2021/10/11 03:21:58;;;;;;;9.63;5.80;;;;;;;2.56;92.50;97047.03;6371299;46;20079;-76
2021/10/11 03:27:00;;;;;;;7.15;4.97;;;;;;;2.56;93.43;97042.34;6358144;46;20110;-76
2021/10/11 03:32:03;;;;;;;7.80;5.00;;;;;;;2.64;94.57;97060.28;6371371;46;20092;-76
2021/10/11 03:37:05;;;;;;;8.90;4.25;;;;;;;2.67;94.98;97051.28;6370418;46;20101;-76
2021/10/11 03:42:08;;;;;;;4.85;3.92;;;;;;;2.90;94.36;97046.16;6370787;46;20087;-76
2021/10/11 03:47:10;;;;;;;7.03;4.80;;;;;;;2.86;94.44;97025.53;6357699;46;20682;-76
2021/10/11 03:52:13;;;;;;;6.78;4.90;;;;;;;2.88;93.53;97034.88;6371213;46;20123;-76
2021/10/11 03:57:15;;;;;;;9.02;5.88;;;;;;;2.90;91.69;97024.34;6370962;46;20092;-76
2021/10/11 04:02:18;;;;;;;9.57;5.63;;;;;;;2.81;90.72;97017.72;6371726;46;20633;-76
2021/10/11 04:07:20;;;;;;;9.68;4.93;;;;;;;2.65;90.68;97031.03;6371011;46;20668;-76
2021/10/11 04:12:32;;;;;;;7.00;5.03;;;;;;;2.34;91.87;97040.81;6371779;46;20110;-76
2021/10/11 04:17:38;;;;;;;7.60;5.13;;;;;;;2.21;92.30;97047.84;6370741;46;20110;-76
2021/10/11 04:22:40;;;;;;;8.52;4.68;;;;;;;2.14;92.72;97042.38;6370969;46;20083;-76
2021/10/11 04:27:43;;;;;;;9.93;4.40;;;;;;;2.12;93.14;97066.53;6370638;46;20132;-76
2021/10/11 04:32:45;;;;;;;6.00;4.15;;;;;;;2.15;93.55;97065.75;6370732;46;20500;-76
2021/10/11 04:37:48;;;;;;;7.82;5.13;;;;;;;2.33;93.50;97054.84;6370703;46;20093;-76
2021/10/11 04:42:51;;;;;;;6.28;4.72;;;;;;;2.28;93.16;97058.75;6371409;46;20212;-76
2021/10/11 04:47:58;;;;;;;6.03;4.40;;;;;;;2.38;93.14;97052.50;6358286;46;20101;-75
2021/10/11 04:53:03;;;;;;;7.95;5.53;;;;;;;2.29;91.99;97052.13;6371590;46;20668;-76
2021/10/11 04:58:06;;;;;;;5.45;4.65;;;;;;;2.30;91.45;97050.16;6372368;46;20182;-76
2021/10/11 05:03:09;;;;;;;7.30;5.00;;;;;;;2.35;90.70;97045.13;6372165;46;20109;-76
2021/10/11 05:08:11;;;;;;;7.32;5.03;;;;;;;2.27;90.32;97045.50;6371680;46;20110;-76
2021/10/11 05:13:14;;;;;;;5.82;4.50;;;;;;;2.05;91.64;97028.38;6371932;46;20123;-75
2021/10/11 05:18:16;;;;;;;7.20;4.72;;;;;;;2.09;91.45;97035.38;6372033;46;20106;-76
2021/10/11 05:23:18;;;;;;;6.95;4.53;;;;;;;2.19;90.91;97034.59;6372128;46;20088;-75
2021/10/11 05:28:21;;;;;;;7.40;4.65;;;;;;;2.04;90.77;97056.78;6371967;46;20110;-76
2021/10/11 05:33:23;;;;;;;4.65;4.00;;;;;;;2.05;90.83;97052.91;6372607;46;20106;-76
2021/10/11 05:38:26;;;;;;;6.75;4.85;;;;;;;2.06;91.23;97051.72;6371971;46;20092;-75
2021/10/11 05:43:29;;;;;;;5.72;4.85;;;;;;;2.11;91.13;97063.03;6372003;46;20088;-76
2021/10/11 05:48:32;;;;;;;6.50;4.50;;;;;;;2.25;91.05;97056.78;6372388;46;20083;-76
2021/10/11 05:53:34;;;;;;;5.88;4.30;;;;;;;2.44;90.82;97061.88;6372310;46;20539;-75
2021/10/11 05:58:37;;;;;;;5.18;4.30;;;;;;;2.45;90.77;97068.88;6373005;46;20096;-75
2021/10/11 06:03:39;;;;;;;6.28;4.22;;;;;;;2.44;91.02;97070.03;6371406;46;20613;-75
2021/10/11 06:08:41;;;;;;;4.97;3.80;;;;;;;2.60;91.47;97067.66;6371930;46;20088;-76
2021/10/11 06:13:45;;;;;;;5.03;4.22;;;;;;;2.71;93.00;97057.50;6371948;46;20088;-75
2021/10/11 06:18:47;;;;;;;4.22;3.65;;;;;;;2.97;92.80;97044.59;6372012;46;20196;-76
2021/10/11 06:23:51;;;;;;;6.75;4.22;;;;;;;3.09;94.49;97046.91;6359079;46;20102;-76
2021/10/11 06:28:54;;;;;;;4.22;3.45;;;;;;;3.30;95.23;97030.44;6371504;46;20088;-75
2021/10/11 06:33:56;;;;;;;5.38;3.63;;;;;;;3.60;95.08;97031.44;6371777;46;20088;-76
2021/10/11 06:38:58;;;;;;;4.50;3.78;;;;;;;3.79;94.24;97034.84;6358895;46;20101;-75
2021/10/11 06:44:01;;;;;;;4.43;3.78;;;;;;;4.09;93.37;97035.03;6358511;46;20096;-75
2021/10/11 06:49:03;;;;;;;5.22;3.85;;;;;;;4.33;94.32;97042.25;6371323;46;20113;-76
2021/10/11 06:54:05;;;;;;;4.80;3.95;;;;;;;4.47;93.58;97036.66;6371898;46;20092;-76
2021/10/11 06:59:08;;;;;;;4.45;3.83;;;;;;;4.61;91.51;97027.53;6372801;46;20095;-75
2021/10/11 07:04:11;;;;;;;4.18;3.78;;;;;;;4.83;94.05;97021.44;6359639;46;20530;-75
2021/10/11 07:09:13;;;;;;;9.05;4.47;;;;;;;5.12;94.06;97019.16;6372077;46;20104;-75
2021/10/11 07:14:18;;;;;;;5.18;4.35;;;;;;;5.33;94.05;97027.13;6372962;46;20110;-76
2021/10/11 07:19:23;;;;;;;4.82;4.22;;;;;;;5.58;93.47;97030.31;6372336;46;20097;-75
2021/10/11 07:24:26;;;;;;;6.22;4.28;;;;;;;6.00;91.96;97052.84;6372567;46;20088;-76
2021/10/11 07:29:28;;;;;;;8.95;4.95;;;;;;;6.11;91.69;97070.72;6372700;46;20097;-76
2021/10/11 07:34:31;;;;;;;4.82;4.10;;;;;;;6.40;89.48;97055.38;6372803;46;20540;-76
2021/10/11 07:39:33;;;;;;;8.27;5.13;;;;;;;6.71;88.25;97052.50;6371795;46;20114;-75
2021/10/11 07:44:36;;;;;;;7.03;4.47;;;;;;;6.87;87.47;97056.16;6373223;46;20129;-75
2021/10/11 07:49:38;;;;;;;11.23;5.57;;;;;;;7.17;86.42;97061.47;6372429;46;20638;-74
2021/10/11 07:54:41;;;;;;;18.00;6.22;;;;;;;7.51;85.15;97054.91;6358588;46;20093;-75
2021/10/11 07:59:43;;;;;;;10.35;6.85;;;;;;;7.63;86.37;97060.53;6371268;46;20232;-76
2021/10/11 08:04:45;;;;;;;7.97;5.78;;;;;;;7.95;85.66;97046.09;6371488;46;20185;-75
2021/10/11 08:09:48;;;;;;;7.18;6.00;;;;;;;8.23;84.51;97056.44;6375050;46;20109;-75
2021/10/11 08:14:51;;;;;;;12.00;7.35;;;;;;;8.45;84.41;97046.53;6374458;46;20602;-74
2021/10/11 08:19:53;;;;;;;13.52;6.47;;;;;;;8.84;83.37;97045.56;6373691;46;20088;-75
2021/10/11 08:24:55;;;;;;;9.07;7.32;;;;;;;8.92;82.15;97044.16;6370676;46;20101;-74
2021/10/11 08:29:58;;;;;;;11.52;7.25;;;;;;;9.05;82.58;97042.22;6371940;46;20131;-74
2021/10/11 08:35:00;;;;;;;13.30;6.72;;;;;;;9.23;81.18;97033.47;6372305;46;20096;-74
2021/10/11 08:40:04;;;;;;;10.75;6.93;;;;;;;9.35;79.85;97032.72;6359035;46;20104;-74
2021/10/11 08:45:07;;;;;;;12.68;7.13;;;;;;;9.57;78.83;97022.63;6372514;46;20097;-75
2021/10/11 08:50:11;;;;;;;10.65;6.90;;;;;;;9.90;78.07;97037.06;6371175;46;20660;-75
2021/10/11 08:55:13;;;;;;;12.70;7.28;;;;;;;10.37;77.02;97043.50;6357218;46;20101;-75
2021/10/11 09:00:19;;;;;;;11.35;7.30;;;;;;;10.61;72.92;97055.72;6369421;46;20088;-74
2021/10/11 09:05:34;;;;;;;12.60;8.18;;;;;;;10.80;72.88;97056.69;6369646;46;20106;-73
2021/10/11 09:10:51;;;;;;;11.30;7.68;;;;;;;12.04;66.73;97051.06;6369667;46;20544;-74
2021/10/11 09:16:08;;;;;;;10.57;7.20;;;;;;;11.31;68.18;97060.84;6375300;46;20678;-74
2021/10/11 09:21:11;;;;;;;12.32;7.65;;;;;;;11.09;69.22;97065.56;6368731;46;20681;-74
2021/10/11 09:26:16;;;;;;;9.70;7.00;;;;;;;11.16;68.79;97048.72;6359135;46;20101;-74
2021/10/11 09:31:19;;;;;;;12.15;7.40;;;;;;;11.95;65.81;97042.69;6364970;46;20101;-74
2021/10/11 09:36:21;;;;;;;12.57;8.23;;;;;;;12.26;62.44;97041.91;6367848;46;20102;-75
2021/10/11 09:41:24;;;;;;;15.43;8.13;;;;;;;12.40;65.74;97050.44;6365818;46;20127;-75
2021/10/11 09:46:28;;;;;;;13.10;7.95;;;;;;;12.01;64.38;97040.88;6351440;46;20087;-75
2021/10/11 09:51:31;;;;;;;10.88;8.00;;;;;;;12.21;65.75;97057.16;6370689;46;20653;-75
2021/10/11 09:56:33;;;;;;;12.18;8.52;;;;;;;12.53;62.08;97044.78;6370835;46;20092;-75
2021/10/11 10:01:40;;;;;;;16.45;8.07;;;;;;;12.74;62.00;97047.47;6369173;46;20088;-75
2021/10/11 10:06:46;;;;;;;15.18;8.35;;;;;;;12.73;60.17;97034.81;6366009;46;20174;-75
2021/10/11 10:11:49;;;;;;;11.95;8.02;;;;;;;12.95;59.53;97035.50;6363361;46;20118;-75
2021/10/11 10:16:55;;;;;;;12.20;8.63;;;;;;;13.03;55.43;97030.38;6367768;46;20092;-74
2021/10/11 10:21:57;;;;;;;14.40;8.27;;;;;;;13.11;55.22;97020.56;6368328;46;20092;-75
2021/10/11 10:27:09;;;;;;;10.45;6.68;;;;;;;13.26;55.11;97020.72;6370824;46;20102;-75
2021/10/11 10:32:14;;;;;;;11.30;7.47;;;;;;;13.16;55.07;97005.31;6370812;46;20096;-75
2021/10/11 10:37:16;;;;;;;10.18;6.28;;;;;;;14.03;53.32;97002.53;6364982;46;20092;-75
2021/10/11 10:42:26;;;;;;;11.57;6.03;;;;;;;13.70;55.87;97005.25;6367920;46;20087;-75
2021/10/11 10:47:31;;;;;;;12.35;6.60;;;;;;;14.61;54.49;96985.47;6369872;46;20303;-75
2021/10/11 10:52:34;;;;;;;11.77;6.68;;;;;;;14.01;54.04;96986.34;6368095;46;20108;-75
2021/10/11 10:57:37;;;;;;;10.57;6.57;;;;;;;13.97;54.02;96994.06;6350685;46;20114;-75
2021/10/11 11:02:45;;;;;;;8.32;6.18;;;;;;;14.83;54.63;96991.50;6368276;46;20096;-75
2021/10/11 11:07:52;;;;;;;8.83;6.57;;;;;;;14.55;51.01;96979.00;6370580;46;20102;-75
2021/10/11 11:12:59;;;;;;;9.10;5.80;;;;;;;15.33;53.52;96976.56;6369835;46;20096;-75
2021/10/11 11:18:08;;;;;;;9.10;6.50;;;;;;;15.21;47.30;96962.91;6366794;46;20088;-74
2021/10/11 11:23:15;;;;;;;8.75;5.38;;;;;;;14.54;48.57;96946.88;6365856;46;20106;-75
2021/10/11 11:28:23;;;;;;;12.00;5.93;;;;;;;14.55;49.24;96954.75;6368517;46;20097;-74
2021/10/11 11:33:29;;;;;;;14.87;6.03;;;;;;;14.51;49.76;96942.25;6368688;46;20102;-73
2021/10/11 11:38:38;;;;;;;7.13;5.68;;;;;;;14.97;50.82;96940.69;6369251;46;20088;-74
2021/10/11 11:43:42;;;;;;;9.00;6.45;;;;;;;15.01;48.69;96927.34;6355390;46;20301;-74
2021/10/11 11:48:45;;;;;;;6.88;5.10;;;;;;;14.91;48.86;96921.09;6367335;46;20092;-74
2021/10/11 11:53:47;;;;;;;8.60;6.60;;;;;;;14.73;49.38;96926.78;6369522;46;20101;-74
2021/10/11 11:58:51;;;;;;;8.82;5.95;;;;;;;14.75;48.42;96937.44;6370452;46;20097;-74
2021/10/11 12:03:58;;;;;;;9.10;5.60;;;;;;;15.33;51.78;96923.66;6365722;46;20096;-74
2021/10/11 12:09:02;;;;;;;10.68;5.50;;;;;;;15.34;47.64;96924.41;6350294;46;20145;-75
2021/10/11 12:14:05;;;;;;;6.15;4.80;;;;;;;15.90;45.16;96915.75;6368942;46;20539;-74
2021/10/11 12:19:08;;;;;;;7.45;4.90;;;;;;;15.87;47.83;96921.56;6368156;46;20530;-74
2021/10/11 12:24:10;;;;;;;9.30;5.53;;;;;;;15.98;48.02;96924.50;6357380;46;20096;-74
2021/10/11 12:29:14;;;;;;;7.90;5.65;;;;;;;15.86;45.73;96917.97;6371410;46;20092;-75
2021/10/11 12:34:17;;;;;;;7.82;5.68;;;;;;;16.04;45.38;96914.19;6357047;46;20109;-74
2021/10/11 12:39:27;;;;;;;7.63;4.95;;;;;;;15.53;46.49;96923.78;6369966;46;20665;-74
2021/10/11 12:44:35;;;;;;;7.70;4.95;;;;;;;14.84;46.59;96921.44;6370096;46;20097;-74
2021/10/11 12:49:38;;;;;;;6.82;5.07;;;;;;;15.29;45.28;96911.91;6370421;46;20105;-74
2021/10/11 12:54:41;;;;;;;8.32;5.80;;;;;;;14.92;46.01;96900.38;6370382;46;20097;-75
2021/10/11 12:59:43;;;;;;;6.80;5.35;;;;;;;15.70;45.83;96896.19;6370415;46;20097;-75
2021/10/11 13:04:45;;;;;;;7.38;4.97;;;;;;;15.01;43.42;96900.28;6357309;46;20110;-75
2021/10/11 13:09:48;;;;;;;7.18;4.82;;;;;;;15.47;44.56;96892.28;6369462;46;20109;-74
2021/10/11 13:14:50;;;;;;;11.43;4.95;;;;;;;15.62;46.71;96876.34;6366491;46;20663;-75
2021/10/11 13:19:53;;;;;;;6.82;4.72;;;;;;;15.42;46.03;96867.09;6369554;46;20677;-75
2021/10/11 13:24:55;;;;;;;7.47;4.85;;;;;;;15.85;43.70;96868.31;6358779;46;20120;-75
2021/10/11 14:28:11;;;;;;;11.13;5.75;;;;;;;15.53;44.30;96843.00;6370958;46;20101;-74
2021/10/11 16:03:56;;;;;;;11.38;5.35;;;;;;;12.57;53.76;96849.34;6370208;46;20278;-75
2021/10/11 16:08:59;;;;;;;6.85;4.63;;;;;;;12.49;55.09;96852.88;6369825;46;20153;-75
2021/10/11 16:14:01;;;;;;;5.38;4.28;;;;;;;12.35;55.19;96848.72;6370149;46;20101;-75
2021/10/11 16:19:04;;;;;;;8.32;5.78;;;;;;;12.35;54.73;96843.16;6370210;46;20559;-75
2021/10/11 16:24:07;;;;;;;8.95;7.53;;;;;;;12.04;57.71;96843.28;6369308;46;20092;-75
2021/10/11 16:29:09;;;;;;;7.90;6.50;;;;;;;11.87;59.11;96852.34;6356094;46;20105;-74
2021/10/11 16:34:12;;;;;;;7.20;5.47;;;;;;;11.41;61.93;96843.06;6370712;46;20219;-75
2021/10/11 16:39:14;;;;;;;7.75;5.70;;;;;;;11.21;65.84;96846.22;6370077;46;20561;-75
2021/10/11 16:44:16;;;;;;;7.25;4.28;;;;;;;11.26;68.60;96856.69;6370753;46;20101;-75
2021/10/11 16:49:19;;;;;;;5.53;3.75;;;;;;;11.00;71.05;96862.84;6371671;46;20207;-75
2021/10/11 16:54:21;;;;;;;5.18;4.22;;;;;;;10.75;72.35;96864.53;6371201;46;20096;-75
2021/10/11 16:59:24;;;;;;;4.90;3.70;;;;;;;10.75;72.41;96853.47;6371256;46;20105;-74
2021/10/11 17:04:26;;;;;;;5.18;3.83;;;;;;;10.58;74.62;96856.88;6370969;46;20092;-75
2021/10/11 17:09:29;;;;;;;8.32;3.53;;;;;;;10.42;76.09;96860.59;6371227;46;20088;-75
2021/10/11 17:14:32;;;;;;;7.60;3.80;;;;;;;10.51;76.55;96870.94;6371279;46;20100;-75
2021/10/11 17:19:34;;;;;;;10.13;3.75;;;;;;;10.27;78.20;96839.44;6371998;46;20210;-76
2021/10/11 17:24:36;;;;;;;6.07;3.55;;;;;;;10.24;78.55;96851.38;6371477;46;20106;-76
2021/10/11 17:29:39;;;;;;;5.65;4.07;;;;;;;10.06;79.80;96863.00;6370960;46;20106;-76
2021/10/11 17:34:41;;;;;;;8.20;3.97;;;;;;;10.09;79.08;96871.16;6371711;46;20096;-76
2021/10/11 17:39:45;;;;;;;4.32;3.78;;;;;;;10.07;79.63;96859.00;6371190;46;20638;-75
2021/10/11 17:44:47;;;;;;;4.22;3.75;;;;;;;10.00;80.94;96870.28;6371486;46;20092;-76
2021/10/11 17:49:50;;;;;;;4.85;4.20;;;;;;;9.95;82.15;96871.63;6371393;46;20082;-76
2021/10/11 17:54:52;;;;;;;10.07;4.95;;;;;;;9.96;82.16;96875.94;6371375;46;20288;-75
2021/10/11 17:59:54;;;;;;;10.82;4.05;;;;;;;9.93;82.27;96881.56;6370860;46;20114;-76
2021/10/11 18:04:57;;;;;;;5.85;4.70;;;;;;;9.91;82.14;96890.28;6371385;46;20093;-76
2021/10/11 18:10:02;;;;;;;6.15;4.70;;;;;;;9.86;82.49;96890.09;6371762;46;20102;-76
2021/10/11 18:15:06;;;;;;;8.55;4.50;;;;;;;9.77;82.89;96890.75;6371332;46;20106;-76
2021/10/11 18:31:24;;;;;;;9.35;4.72;;;;;;;9.59;83.63;96898.81;6347121;46;20666;-74
2021/10/11 18:36:27;;;;;;;6.65;4.93;;;;;;;9.54;84.22;96901.34;6340470;46;20089;-74
2021/10/11 18:41:30;;;;;;;5.88;4.20;;;;;;;9.46;84.67;96903.56;6349702;46;20110;-75
2021/10/11 18:46:32;;;;;;;5.18;4.35;;;;;;;9.38;84.23;96907.75;6369542;46;20092;-75
2021/10/11 18:51:37;;;;;;;8.57;5.65;;;;;;;9.42;83.35;96913.16;6370445;46;20127;-75
2021/10/11 18:56:39;;;;;;;10.45;5.90;;;;;;;9.29;82.15;96910.38;6367849;46;20735;-74
2021/10/11 19:01:43;;;;;;;10.35;6.88;;;;;;;9.37;80.92;96915.25;6370533;46;20092;-74
2021/10/11 19:06:46;;;;;;;10.25;6.80;;;;;;;9.35;80.16;96903.09;6358109;46;20097;-74
2021/10/11 19:11:48;;;;;;;9.65;6.63;;;;;;;9.31;80.88;96913.47;6370129;46;20221;-74
2021/10/11 19:16:52;;;;;;;9.73;5.97;;;;;;;9.24;81.41;96910.94;6371042;46;20109;-74
2021/10/11 19:21:54;;;;;;;9.90;6.75;;;;;;;9.15;81.79;96908.03;6370490;46;20290;-74
2021/10/11 19:26:56;;;;;;;8.80;5.85;;;;;;;9.04;82.00;96907.59;6370521;46;20088;-74
2021/10/11 19:31:59;;;;;;;10.32;6.82;;;;;;;9.15;81.19;96916.31;6357911;46;20103;-74
2021/10/11 19:37:02;;;;;;;11.25;6.43;;;;;;;9.15;81.49;96910.81;6370651;46;20110;-74
2021/10/11 19:42:04;;;;;;;9.38;6.65;;;;;;;9.19;81.57;96915.00;6371320;46;20101;-75
2021/10/11 19:47:07;;;;;;;11.30;6.63;;;;;;;9.14;81.73;96898.22;6371156;46;20092;-75
2021/10/11 19:52:09;;;;;;;10.68;6.07;;;;;;;9.06;82.54;96902.41;6371016;46;20113;-74
2021/10/11 19:57:11;;;;;;;8.35;6.75;;;;;;;8.93;83.33;96893.34;6370467;46;20097;-75
2021/10/11 20:02:14;;;;;;;12.98;7.05;;;;;;;8.95;83.77;96897.19;6370441;46;20092;-75
2021/10/11 20:07:16;;;;;;;10.48;7.43;;;;;;;8.92;83.92;96900.03;6370169;46;20088;-75
2021/10/11 20:12:19;;;;;;;10.40;7.53;;;;;;;8.76;84.24;96900.09;6370435;46;20129;-75
2021/10/11 20:17:22;;;;;;;12.82;9.15;;;;;;;8.78;83.91;96911.47;6370770;46;20088;-74
2021/10/11 20:22:25;;;;;;;13.00;8.98;;;;;;;8.91;83.74;96906.78;6370200;46;20110;-75
2021/10/11 20:27:28;;;;;;;15.73;9.60;;;;;;;8.91;84.17;96904.03;6369971;46;20101;-74
2021/10/11 20:32:30;;;;;;;20.52;10.00;;;;;;;8.98;84.20;96895.56;6369831;46;20096;-74
2021/10/11 20:37:33;;;;;;;16.33;9.75;;;;;;;8.95;85.07;96896.44;6368759;46;20088;-74
2021/10/11 20:42:35;;;;;;;18.02;10.70;;;;;;;9.01;85.37;96891.91;6370091;46;20092;-74
2021/10/11 20:47:38;;;;;;;18.77;10.52;;;;;;;8.95;85.84;96901.94;6370719;46;20113;-75
2021/10/11 20:52:40;;;;;;;18.17;11.45;;;;;;;8.89;86.56;96893.41;6370405;46;20110;-75
2021/10/11 20:57:43;;;;;;;20.23;11.10;;;;;;;8.97;86.38;96899.50;6369903;46;20088;-75
2021/10/11 21:02:45;;;;;;;18.45;10.95;;;;;;;9.19;85.49;96897.69;6370172;46;20114;-75
2021/10/11 21:07:48;;;;;;;27.30;10.55;;;;;;;9.24;85.65;96897.13;6370194;46;20092;-75
2021/10/11 21:12:51;;;;;;;17.35;10.77;;;;;;;9.35;85.85;96898.38;6369854;46;20083;-75
2021/10/11 21:17:53;;;;;;;20.85;11.63;;;;;;;9.35;85.11;96889.31;6369748;46;20088;-75
2021/10/11 21:22:56;;;;;;;16.52;11.18;;;;;;;9.48;85.42;96895.59;6368583;46;20092;-74
2021/10/11 21:27:58;;;;;;;24.15;12.98;;;;;;;9.62;85.77;96899.91;6370491;46;20180;-75
2021/10/11 21:33:01;;;;;;;23.55;13.25;;;;;;;9.68;86.25;96890.63;6369550;46;20623;-75
2021/10/11 21:38:06;;;;;;;21.50;12.23;;;;;;;9.84;86.13;96882.22;6358858;46;20083;-75
2021/10/11 21:43:12;;;;;;;22.50;13.15;;;;;;;9.86;86.06;96887.34;6372773;46;20110;-75
2021/10/11 21:48:14;;;;;;;28.17;14.57;;;;;;;9.80;87.33;96884.34;6372393;46;20552;-75
2021/10/11 21:53:16;;;;;;;21.30;13.13;;;;;;;9.91;86.46;96886.75;6371976;46;20101;-75
2021/10/11 21:58:19;;;;;;;23.52;13.50;;;;;;;9.78;90.01;96892.28;6372336;46;20110;-75
2021/10/11 22:03:21;;;;;;;24.52;13.70;;;;;;;9.82;92.30;96870.88;6371976;46;20106;-75
2021/10/11 22:08:24;;;;;;;24.25;13.27;;;;;;;9.75;94.00;96881.34;6371853;46;20102;-75
2021/10/11 22:13:28;;;;;;;29.73;14.60;;;;;;;9.77;95.47;96879.69;6371948;46;20566;-75
2021/10/11 22:18:30;;;;;;;32.55;14.57;;;;;;;9.66;97.00;96868.22;6372205;46;20110;-74
2021/10/11 22:23:33;;;;;;;29.63;14.52;;;;;;;9.77;96.15;96871.41;6371805;46;20535;-75
2021/10/11 22:28:36;;;;;;;30.17;15.40;;;;;;;9.77;96.46;96859.63;6358767;46;20092;-74
2021/10/11 22:33:38;;;;;;;30.42;15.73;;;;;;;9.70;97.28;96871.66;6371789;46;20549;-75
2021/10/11 22:38:41;;;;;;;26.70;14.23;;;;;;;9.73;97.06;96873.53;6358877;46;20096;-75
2021/10/11 22:43:43;;;;;;;24.02;13.10;;;;;;;9.68;97.71;96871.31;6371662;46;20132;-75
2021/10/11 22:48:46;;;;;;;21.60;13.15;;;;;;;9.65;98.10;96868.69;6371240;46;20123;-75
2021/10/11 22:53:48;;;;;;;26.45;13.82;;;;;;;9.60;98.44;96864.50;6371715;46;20092;-75
2021/10/11 22:58:51;;;;;;;19.45;12.57;;;;;;;9.61;97.93;96857.75;6371428;46;20083;-74
2021/10/11 23:03:53;;;;;;;22.88;13.05;;;;;;;9.55;97.82;96851.25;6371681;46;20083;-75
2021/10/11 23:08:56;;;;;;;23.88;13.07;;;;;;;9.39;98.07;96854.13;6371623;46;20088;-74
2021/10/11 23:13:58;;;;;;;25.15;13.00;;;;;;;9.28;98.35;96853.66;6371617;46;20115;-74
2021/10/11 23:19:00;;;;;;;20.55;12.18;;;;;;;9.02;100.00;96863.94;6371919;46;20101;-74
2021/10/11 23:24:03;;;;;;;20.50;13.18;;;;;;;9.01;100.00;96850.56;6371363;46;20633;-74
2021/10/11 23:29:05;;;;;;;24.90;13.60;;;;;;;9.05;100.00;96853.97;6371249;46;20110;-74
2021/10/11 23:34:08;;;;;;;21.27;12.65;;;;;;;8.93;100.00;96852.00;6370734;46;20101;-74
2021/10/11 23:39:11;;;;;;;19.55;12.55;;;;;;;8.94;100.00;96840.53;6371141;46;20110;-74
2021/10/11 23:44:13;;;;;;;22.17;13.40;;;;;;;8.97;100.00;96841.63;6371429;46;20097;-75
2021/10/11 23:49:15;;;;;;;25.13;13.40;;;;;;;8.81;100.00;96834.22;6371080;46;20106;-74
2021/10/11 23:54:22;;;;;;;22.55;13.20;;;;;;;9.02;100.00;96839.13;6371287;46;20570;-74
2021/10/11 23:59:24;;;;;;;25.63;14.57;;;;;;;9.22;100.00;96845.19;6358138;46;20140;-74
